sensor_id;sensor_type;location;lat;lon;timestamp;temperature;humidity
23305;DHT22;11821;51.456;8.844;2023-03-24T08:31:20;13.60;99.90
23305;DHT22;11821;51.456;8.844;2023-03-24T08:33:46;15.80;99.90
23305;DHT22;11821;51.456;8.844;2023-03-24T08:41:06;16.00;99.90
23305;DHT22;11821;51.456;8.844;2023-03-24T08:46:01;16.00;99.90
23305;DHT22;11821;51.456;8.844;2023-03-24T09:10:39;16.00;99.90
23305;DHT22;11821;51.456;8.844;2023-03-24T09:13:06;16.90;99.90
23305;DHT22;11821;51.456;8.844;2023-03-24T09:15:32;17.30;99.90
23305;DHT22;11821;51.456;8.844;2023-03-24T09:17:59;17.70;99.90
23305;DHT22;11821;51.456;8.844;2023-03-24T09:20:25;17.50;99.90
23305;DHT22;11821;51.456;8.844;2023-03-24T09:22:52;17.50;99.90
23305;DHT22;11821;51.456;8.844;2023-03-24T09:25:19;17.50;99.90
23305;DHT22;11821;51.456;8.844;2023-03-24T09:27:46;17.50;99.90
23305;DHT22;11821;51.456;8.844;2023-03-24T09:30:14;17.80;99.90
23305;DHT22;11821;51.456;8.844;2023-03-24T09:32:41;17.80;99.90
23305;DHT22;11821;51.456;8.844;2023-03-24T09:35:09;17.90;99.90
23305;DHT22;11821;51.456;8.844;2023-03-24T09:37:36;17.90;99.90
23305;DHT22;11821;51.456;8.844;2023-03-24T09:40:04;18.00;99.90
23305;DHT22;11821;51.456;8.844;2023-03-24T09:42:38;17.80;99.90
23305;DHT22;11821;51.456;8.844;2023-03-24T09:47:48;17.60;99.90
23305;DHT22;11821;51.456;8.844;2023-03-24T09:50:21;17.40;99.90
23305;DHT22;11821;51.456;8.844;2023-03-24T09:52:53;17.30;99.90
23305;DHT22;11821;51.456;8.844;2023-03-24T09:55:23;17.30;99.90
23305;DHT22;11821;51.456;8.844;2023-03-24T09:57:52;17.70;99.90
23305;DHT22;11821;51.456;8.844;2023-03-24T10:02:58;17.80;99.90
23305;DHT22;11821;51.456;8.844;2023-03-24T10:08:24;17.70;99.90
23305;DHT22;11821;51.456;8.844;2023-03-24T10:11:34;17.70;99.90
23305;DHT22;11821;51.456;8.844;2023-03-24T10:19:39;17.80;99.90
23305;DHT22;11821;51.456;8.844;2023-03-24T10:42:48;17.60;99.90
23305;DHT22;11821;51.456;8.844;2023-03-24T10:47:50;18.50;99.90
23305;DHT22;11821;51.456;8.844;2023-03-24T10:52:46;18.60;99.90
23305;DHT22;11821;51.456;8.844;2023-03-24T10:55:15;18.10;99.90
23305;DHT22;11821;51.456;8.844;2023-03-24T10:57:49;18.10;99.90
23305;DHT22;11821;51.456;8.844;2023-03-24T11:00:25;17.90;99.90
23305;DHT22;11821;51.456;8.844;2023-03-24T11:03:10;17.80;99.90
23305;DHT22;11821;51.456;8.844;2023-03-24T11:05:38;17.90;99.90
23305;DHT22;11821;51.456;8.844;2023-03-24T11:08:33;17.70;99.90
23305;DHT22;11821;51.456;8.844;2023-03-24T11:11:00;17.90;99.90
23305;DHT22;11821;51.456;8.844;2023-03-24T11:13:37;17.90;99.90
23305;DHT22;11821;51.456;8.844;2023-03-24T11:21:36;17.80;99.90
23305;DHT22;11821;51.456;8.844;2023-03-24T11:24:10;17.60;99.90
23305;DHT22;11821;51.456;8.844;2023-03-24T11:26:38;17.30;99.90
23305;DHT22;11821;51.456;8.844;2023-03-24T11:29:23;17.30;99.90
23305;DHT22;11821;51.456;8.844;2023-03-24T11:34:32;17.60;99.90
23305;DHT22;11821;51.456;8.844;2023-03-24T11:39:37;17.70;99.90
23305;DHT22;11821;51.456;8.844;2023-03-24T11:55:20;17.70;99.90
23305;DHT22;11821;51.456;8.844;2023-03-24T11:57:56;17.80;99.90
23305;DHT22;11821;51.456;8.844;2023-03-24T12:00:31;17.70;99.90
23305;DHT22;11821;51.456;8.844;2023-03-24T12:03:19;17.40;99.90
23305;DHT22;11821;51.456;8.844;2023-03-24T12:13:51;17.70;99.90
23305;DHT22;11821;51.456;8.844;2023-03-24T12:27:04;17.70;99.90
23305;DHT22;11821;51.456;8.844;2023-03-24T12:43:43;18.60;99.90
23305;DHT22;11821;51.456;8.844;2023-03-24T12:59:23;18.90;99.90
23305;DHT22;11821;51.456;8.844;2023-03-24T13:04:32;18.30;99.90
23305;DHT22;11821;51.456;8.844;2023-03-24T13:12:16;18.20;99.90
23305;DHT22;11821;51.456;8.844;2023-03-24T13:14:53;18.50;99.90
23305;DHT22;11821;51.456;8.844;2023-03-24T13:19:53;18.50;99.90
23305;DHT22;11821;51.456;8.844;2023-03-24T13:22:22;19.00;99.90
23305;DHT22;11821;51.456;8.844;2023-03-24T13:24:50;19.20;99.90
23305;DHT22;11821;51.456;8.844;2023-03-24T13:27:35;19.30;99.90
23305;DHT22;11821;51.456;8.844;2023-03-24T13:40:38;19.40;99.90
23305;DHT22;11821;51.456;8.844;2023-03-24T13:48:37;19.40;99.90
23305;DHT22;11821;51.456;8.844;2023-03-24T13:56:32;18.80;99.90
23305;DHT22;11821;51.456;8.844;2023-03-24T13:59:06;18.80;99.90
23305;DHT22;11821;51.456;8.844;2023-03-24T14:01:41;18.90;99.90
23305;DHT22;11821;51.456;8.844;2023-03-24T14:19:24;19.30;99.90
23305;DHT22;11821;51.456;8.844;2023-03-24T14:37:22;19.30;99.90
23305;DHT22;11821;51.456;8.844;2023-03-24T14:57:51;19.30;99.20
23305;DHT22;11821;51.456;8.844;2023-03-24T15:02:54;18.60;99.60
23305;DHT22;11821;51.456;8.844;2023-03-24T15:10:25;18.20;99.90
23305;DHT22;11821;51.456;8.844;2023-03-24T15:25:42;18.40;99.50
23305;DHT22;11821;51.456;8.844;2023-03-24T15:30:56;18.90;99.90
23305;DHT22;11821;51.456;8.844;2023-03-24T15:33:24;18.50;99.90
23305;DHT22;11821;51.456;8.844;2023-03-24T15:38:31;18.50;99.50
23305;DHT22;11821;51.456;8.844;2023-03-24T15:43:25;18.30;99.70
23305;DHT22;11821;51.456;8.844;2023-03-24T15:45:54;18.40;99.90
23305;DHT22;11821;51.456;8.844;2023-03-24T15:48:24;18.30;99.90
23305;DHT22;11821;51.456;8.844;2023-03-24T15:51:04;18.20;99.70
23305;DHT22;11821;51.456;8.844;2023-03-24T15:53:40;18.00;99.90
23305;DHT22;11821;51.456;8.844;2023-03-24T15:56:18;18.00;99.90
23305;DHT22;11821;51.456;8.844;2023-03-24T15:58:49;18.00;99.90
23305;DHT22;11821;51.456;8.844;2023-03-24T16:01:18;17.80;99.90
23305;DHT22;11821;51.456;8.844;2023-03-24T16:03:46;17.80;99.90
23305;DHT22;11821;51.456;8.844;2023-03-24T16:06:25;17.70;99.90
23305;DHT22;11821;51.456;8.844;2023-03-24T16:08:52;17.70;99.90
23305;DHT22;11821;51.456;8.844;2023-03-24T16:11:18;17.80;99.90
23305;DHT22;11821;51.456;8.844;2023-03-24T16:13:44;17.90;99.90
23305;DHT22;11821;51.456;8.844;2023-03-24T16:23:56;17.60;99.90
23305;DHT22;11821;51.456;8.844;2023-03-24T16:28:49;15.00;99.90
23305;DHT22;11821;51.456;8.844;2023-03-24T16:31:23;15.10;99.90
23305;DHT22;11821;51.456;8.844;2023-03-24T16:33:53;15.10;99.90
23305;DHT22;11821;51.456;8.844;2023-03-24T16:36:20;15.50;99.90
23305;DHT22;11821;51.456;8.844;2023-03-24T16:38:48;15.60;99.90
23305;DHT22;11821;51.456;8.844;2023-03-24T16:41:15;15.70;99.90
23305;DHT22;11821;51.456;8.844;2023-03-24T16:43:42;15.60;99.90
23305;DHT22;11821;51.456;8.844;2023-03-24T16:46:21;15.70;99.90
23305;DHT22;11821;51.456;8.844;2023-03-24T16:48:54;15.70;99.90
23305;DHT22;11821;51.456;8.844;2023-03-24T16:51:21;15.80;99.90
23305;DHT22;11821;51.456;8.844;2023-03-24T16:53:48;15.80;99.90
23305;DHT22;11821;51.456;8.844;2023-03-24T16:56:17;15.90;99.90
23305;DHT22;11821;51.456;8.844;2023-03-24T16:58:44;15.70;99.90
23305;DHT22;11821;51.456;8.844;2023-03-24T17:03:53;15.60;99.90
23305;DHT22;11821;51.456;8.844;2023-03-24T17:06:20;15.50;99.90
23305;DHT22;11821;51.456;8.844;2023-03-24T17:08:47;15.40;99.90
23305;DHT22;11821;51.456;8.844;2023-03-24T17:11:16;15.20;99.90
23305;DHT22;11821;51.456;8.844;2023-03-24T17:13:44;15.20;99.90
23305;DHT22;11821;51.456;8.844;2023-03-24T17:16:15;15.10;99.90
23305;DHT22;11821;51.456;8.844;2023-03-24T17:18:42;14.90;99.90
23305;DHT22;11821;51.456;8.844;2023-03-24T17:21:14;14.80;99.90
23305;DHT22;11821;51.456;8.844;2023-03-24T17:23:45;14.70;99.90
23305;DHT22;11821;51.456;8.844;2023-03-24T17:26:15;14.70;99.90
23305;DHT22;11821;51.456;8.844;2023-03-24T17:28:41;14.60;99.90
23305;DHT22;11821;51.456;8.844;2023-03-24T17:31:08;14.50;99.90
23305;DHT22;11821;51.456;8.844;2023-03-24T17:33:34;14.40;99.90
23305;DHT22;11821;51.456;8.844;2023-03-24T17:36:01;14.40;99.90
23305;DHT22;11821;51.456;8.844;2023-03-24T17:38:28;14.30;99.90
23305;DHT22;11821;51.456;8.844;2023-03-24T17:41:01;14.30;99.90
23305;DHT22;11821;51.456;8.844;2023-03-24T17:43:29;14.20;99.90
23305;DHT22;11821;51.456;8.844;2023-03-24T17:46:00;14.20;99.90
23305;DHT22;11821;51.456;8.844;2023-03-24T17:48:27;14.30;99.90
23305;DHT22;11821;51.456;8.844;2023-03-24T17:50:53;14.20;99.90
23305;DHT22;11821;51.456;8.844;2023-03-24T17:53:21;14.20;99.90
23305;DHT22;11821;51.456;8.844;2023-03-24T17:55:55;14.30;99.90
23305;DHT22;11821;51.456;8.844;2023-03-24T17:58:23;14.10;99.90
23305;DHT22;11821;51.456;8.844;2023-03-24T18:00:52;14.00;99.90
23305;DHT22;11821;51.456;8.844;2023-03-24T18:03:18;13.90;99.90
23305;DHT22;11821;51.456;8.844;2023-03-24T18:05:46;13.70;99.90
23305;DHT22;11821;51.456;8.844;2023-03-24T18:08:12;13.60;99.90
23305;DHT22;11821;51.456;8.844;2023-03-24T18:10:39;13.50;99.90
23305;DHT22;11821;51.456;8.844;2023-03-24T18:13:06;13.40;99.90
23305;DHT22;11821;51.456;8.844;2023-03-24T18:15:33;13.20;99.90
23305;DHT22;11821;51.456;8.844;2023-03-24T18:17:59;13.00;99.90
23305;DHT22;11821;51.456;8.844;2023-03-24T18:20:26;12.90;99.90
23305;DHT22;11821;51.456;8.844;2023-03-24T18:22:52;12.90;99.90
